createdAt,value
2017-07-28T00:01:01.233Z,93
2017-07-28T00:02:10.346Z,94
2017-07-28T00:03:18.418Z,92
2017-07-28T00:04:26.392Z,94
2017-07-28T00:05:34.108Z,93
2017-07-28T00:06:41.762Z,94
2017-07-28T00:07:49.550Z,94
2017-07-28T00:08:57.729Z,94
2017-07-28T00:10:06.391Z,93
2017-07-28T00:11:14.413Z,93
2017-07-28T00:12:22.187Z,93
2017-07-28T00:13:29.939Z,93
2017-07-28T00:14:37.963Z,92
2017-07-28T00:15:46.730Z,93
2017-07-28T00:16:54.433Z,93
2017-07-28T00:18:02.493Z,94
2017-07-28T00:19:10.185Z,93
2017-07-28T00:20:18.618Z,92
2017-07-28T00:21:26.805Z,93
2017-07-28T00:22:34.883Z,92
2017-07-28T00:23:42.615Z,93
2017-07-28T00:24:50.629Z,93
2017-07-28T00:25:58.988Z,93
2017-07-28T00:27:06.993Z,92
2017-07-28T00:28:14.646Z,93
2017-07-28T00:29:22.341Z,93
2017-07-28T00:30:30.036Z,92
2017-07-28T00:31:38.391Z,93
2017-07-28T00:32:46.256Z,93
2017-07-28T00:33:54.205Z,92
2017-07-28T00:35:01.908Z,92
2017-07-28T00:36:09.622Z,93
2017-07-28T00:37:17.644Z,93
2017-07-28T00:38:25.682Z,93
2017-07-28T00:39:34.476Z,92
2017-07-28T00:40:43.836Z,93
2017-07-28T00:41:52.026Z,92
2017-07-28T00:43:00.396Z,92
2017-07-28T00:44:11.221Z,93
2017-07-28T00:45:20.480Z,93
2017-07-28T00:46:28.520Z,93
2017-07-28T00:47:36.876Z,92
2017-07-28T00:48:44.900Z,92
2017-07-28T00:49:52.575Z,91
2017-07-28T00:51:00.610Z,92
2017-07-28T00:52:08.611Z,93
2017-07-28T00:53:16.321Z,92
2017-07-28T00:54:24.618Z,93
2017-07-28T00:55:32.352Z,92
2017-07-28T00:56:40.167Z,92
2017-07-28T00:57:48.220Z,92
2017-07-28T00:58:55.865Z,92
2017-07-28T01:00:04.233Z,91
2017-07-28T01:01:13.173Z,92
2017-07-28T01:02:21.209Z,92
2017-07-28T01:03:29.609Z,92
2017-07-28T01:04:37.810Z,92
2017-07-28T01:05:45.864Z,92
2017-07-28T01:06:55.047Z,92
2017-07-28T01:08:02.822Z,92
2017-07-28T01:09:10.821Z,92
2017-07-28T01:10:19.562Z,92
2017-07-28T01:11:28.371Z,92
2017-07-28T01:12:36.516Z,92
2017-07-28T01:13:44.306Z,92
2017-07-28T01:14:52.934Z,92
2017-07-28T01:16:00.688Z,92
2017-07-28T01:17:08.648Z,92
2017-07-28T01:18:17.124Z,92
2017-07-28T01:19:26.201Z,92
2017-07-28T01:20:34.489Z,91
2017-07-28T01:21:42.674Z,92
2017-07-28T01:22:51.319Z,92
2017-07-28T01:23:59.132Z,92
2017-07-28T01:25:09.195Z,92
2017-07-28T01:26:17.636Z,92
2017-07-28T01:27:26.047Z,92
2017-07-28T01:28:34.199Z,92
2017-07-28T01:29:42.473Z,92
2017-07-28T01:30:50.192Z,92
2017-07-28T01:31:57.855Z,92
2017-07-28T01:33:05.500Z,92
2017-07-28T01:34:13.832Z,92
2017-07-28T01:35:22.929Z,91
2017-07-28T01:36:32.902Z,92
2017-07-28T01:37:41.341Z,92
2017-07-28T01:38:49.390Z,91
2017-07-28T01:39:57.723Z,92
2017-07-28T01:41:05.601Z,92
2017-07-28T01:42:14.404Z,92
2017-07-28T01:43:22.513Z,92
2017-07-28T01:44:33.348Z,92
2017-07-28T01:45:41.523Z,92
2017-07-28T01:46:49.725Z,92
2017-07-28T01:47:58.167Z,92
2017-07-28T01:49:06.509Z,92
2017-07-28T01:50:15.276Z,91
2017-07-28T01:51:23.397Z,92
2017-07-28T01:52:32.531Z,92
2017-07-28T01:53:42.627Z,92
2017-07-28T01:54:50.584Z,91
2017-07-28T01:55:58.235Z,92
2017-07-28T01:57:06.699Z,92
2017-07-28T01:58:14.372Z,92
2017-07-28T01:59:22.148Z,92
2017-07-28T02:00:30.129Z,92
2017-07-28T02:01:37.963Z,92
2017-07-28T02:02:46.256Z,91
2017-07-28T02:03:54.284Z,92
2017-07-28T02:05:02.318Z,92
2017-07-28T02:06:10.296Z,91
2017-07-28T02:07:17.980Z,92
2017-07-28T02:08:26.543Z,91
2017-07-28T02:09:34.227Z,92
2017-07-28T02:10:42.666Z,92
2017-07-28T02:11:50.634Z,92
2017-07-28T02:12:58.500Z,92
2017-07-28T02:14:06.580Z,91
2017-07-28T02:15:14.354Z,91
2017-07-28T02:16:22.212Z,91
2017-07-28T02:17:30.328Z,91
2017-07-28T02:18:39.072Z,91
2017-07-28T02:19:47.431Z,91
2017-07-28T02:20:55.122Z,92
2017-07-28T02:22:03.127Z,92
2017-07-28T02:23:11.457Z,90
2017-07-28T02:24:20.347Z,91
2017-07-28T02:25:29.291Z,91
2017-07-28T02:26:39.256Z,90
2017-07-28T02:27:48.698Z,91
2017-07-28T02:29:09.103Z,91
2017-07-28T02:30:17.956Z,91
2017-07-28T02:31:26.122Z,91
2017-07-28T02:32:34.258Z,91
2017-07-28T02:33:42.073Z,90
2017-07-28T02:34:51.494Z,91
2017-07-28T02:35:59.294Z,91
2017-07-28T02:37:07.407Z,91
2017-07-28T02:38:15.368Z,91
2017-07-28T02:39:23.451Z,91
2017-07-28T02:40:31.427Z,91
2017-07-28T02:41:39.205Z,91
2017-07-28T02:42:47.794Z,91
2017-07-28T02:43:55.865Z,91
2017-07-28T02:45:05.342Z,91
2017-07-28T02:46:13.828Z,91
2017-07-28T02:47:23.906Z,91
2017-07-28T02:48:32.004Z,91
2017-07-28T02:49:40.187Z,91
2017-07-28T02:50:47.801Z,90
2017-07-28T02:51:55.749Z,91
2017-07-28T02:53:03.729Z,90
2017-07-28T02:54:11.837Z,91
2017-07-28T02:55:19.599Z,90
2017-07-28T02:56:27.517Z,91
2017-07-28T02:57:35.417Z,90
2017-07-28T02:58:43.608Z,91
2017-07-28T02:59:51.966Z,91
2017-07-28T03:00:59.849Z,90
2017-07-28T03:02:08.296Z,91
2017-07-28T03:03:17.187Z,90
2017-07-28T03:04:25.614Z,90
2017-07-28T03:05:34.209Z,90
2017-07-28T03:06:41.880Z,91
2017-07-28T03:07:49.552Z,90
2017-07-28T03:08:57.301Z,90
2017-07-28T03:10:05.230Z,90
2017-07-28T03:11:13.275Z,90
2017-07-28T03:12:21.221Z,91
2017-07-28T03:13:29.185Z,90
2017-07-28T03:14:37.143Z,91
2017-07-28T03:15:44.837Z,90
2017-07-28T03:16:52.946Z,90
2017-07-28T03:18:00.700Z,90
2017-07-28T03:19:09.226Z,90
2017-07-28T03:20:17.481Z,90
2017-07-28T03:21:26.041Z,90
2017-07-28T03:22:34.389Z,90
2017-07-28T03:23:43.861Z,90
2017-07-28T03:24:51.860Z,90
2017-07-28T03:26:00.312Z,90
2017-07-28T03:27:08.045Z,90
2017-07-28T03:28:16.112Z,90
2017-07-28T03:29:24.047Z,90
2017-07-28T03:30:31.773Z,90
2017-07-28T03:31:39.406Z,90
2017-07-28T03:32:47.093Z,90
2017-07-28T03:33:55.235Z,90
2017-07-28T03:35:02.940Z,90
2017-07-28T03:36:16.344Z,90
2017-07-28T03:37:24.927Z,90
2017-07-28T03:38:33.323Z,90
2017-07-28T03:39:41.799Z,89
2017-07-28T03:40:49.478Z,90
2017-07-28T03:41:57.124Z,90
2017-07-28T03:43:04.773Z,90
2017-07-28T03:44:13.230Z,90
2017-07-28T03:45:23.801Z,90
2017-07-28T03:46:32.359Z,90
2017-07-28T03:47:40.723Z,90
2017-07-28T03:48:48.761Z,90
2017-07-28T03:49:56.724Z,89
2017-07-28T03:51:05.345Z,90
2017-07-28T03:52:13.000Z,90
2017-07-28T03:53:26.232Z,89
2017-07-28T03:54:38.762Z,90
2017-07-28T03:55:47.852Z,90
2017-07-28T03:56:56.218Z,90
2017-07-28T03:58:04.441Z,90
2017-07-28T03:59:12.248Z,90
2017-07-28T04:00:27.203Z,90
2017-07-28T04:01:40.553Z,90
2017-07-28T04:04:02.565Z,89
2017-07-28T04:05:18.665Z,89
2017-07-28T04:06:28.245Z,90
2017-07-28T04:07:38.183Z,90
2017-07-28T04:08:47.028Z,90
2017-07-28T04:09:57.653Z,90
2017-07-28T04:11:09.681Z,89
2017-07-28T04:12:19.143Z,89
2017-07-28T04:13:30.283Z,90
2017-07-28T04:14:39.104Z,90
2017-07-28T04:15:49.767Z,90
2017-07-28T04:17:03.720Z,90
2017-07-28T04:18:11.970Z,90
2017-07-28T04:19:22.409Z,89
2017-07-28T04:20:38.704Z,89
2017-07-28T04:21:47.593Z,90
2017-07-28T04:23:02.266Z,90
2017-07-28T04:24:10.465Z,90
2017-07-28T04:25:23.845Z,90
2017-07-28T04:26:37.289Z,90
2017-07-28T04:27:45.071Z,90
2017-07-28T04:28:53.825Z,88
2017-07-28T04:30:06.353Z,90
2017-07-28T04:31:18.186Z,89
2017-07-28T04:32:31.102Z,89
2017-07-28T04:33:50.489Z,89
2017-07-28T04:35:02.951Z,90
2017-07-28T04:36:14.406Z,90
2017-07-28T04:37:31.684Z,89
2017-07-28T04:38:41.021Z,89
2017-07-28T04:39:54.191Z,89
2017-07-28T04:41:03.859Z,90
2017-07-28T04:42:21.991Z,88
2017-07-28T04:43:35.112Z,88
2017-07-28T04:44:44.042Z,89
2017-07-28T04:45:57.581Z,90
2017-07-28T04:47:10.393Z,89
2017-07-28T04:48:20.564Z,88
2017-07-28T04:49:31.073Z,88
2017-07-28T04:50:39.188Z,89
2017-07-28T04:51:47.450Z,90
2017-07-28T04:53:02.669Z,89
2017-07-28T04:54:24.385Z,88
2017-07-28T04:55:33.734Z,89
2017-07-28T04:57:06.685Z,89
2017-07-28T04:58:22.276Z,88
2017-07-28T04:59:50.029Z,88
2017-07-28T05:00:03.910Z,89
2017-07-28T05:01:21.163Z,88
2017-07-28T05:02:37.406Z,88
2017-07-28T06:22:06.870Z,87
2017-07-28T06:23:14.923Z,87
2017-07-28T06:24:23.070Z,87
2017-07-28T06:25:31.050Z,87
2017-07-28T06:26:39.065Z,87
2017-07-28T06:27:47.154Z,87
2017-07-28T06:28:55.114Z,87
2017-07-28T06:30:02.815Z,87
2017-07-28T06:31:11.173Z,87
2017-07-28T06:32:19.200Z,87
2017-07-28T06:33:27.345Z,87
2017-07-28T06:34:35.189Z,87
2017-07-28T06:35:43.208Z,87
2017-07-28T06:36:51.109Z,87
2017-07-28T06:38:00.447Z,87
2017-07-28T06:39:09.524Z,87
2017-07-28T06:40:17.403Z,87
2017-07-28T06:41:25.529Z,87
2017-07-28T06:42:33.568Z,87
2017-07-28T06:43:41.343Z,87
2017-07-28T06:44:49.449Z,87
2017-07-28T06:45:57.459Z,87
2017-07-28T06:47:05.928Z,87
2017-07-28T06:48:13.966Z,87
2017-07-28T06:49:21.933Z,87
2017-07-28T06:50:30.071Z,87
2017-07-28T06:51:38.345Z,87
2017-07-28T06:52:46.086Z,87
2017-07-28T06:53:54.210Z,87
2017-07-28T06:55:02.551Z,86
2017-07-28T06:56:11.465Z,87
2017-07-28T06:57:19.183Z,87
2017-07-28T06:58:26.976Z,86
2017-07-28T06:59:34.763Z,87
2017-07-28T07:00:42.564Z,87
2017-07-28T07:01:51.011Z,87
2017-07-28T07:03:00.019Z,87
2017-07-28T07:04:08.311Z,87
2017-07-28T07:05:16.061Z,87
2017-07-28T07:06:30.517Z,86
2017-07-28T07:07:39.167Z,87
2017-07-28T07:08:47.343Z,87
2017-07-28T07:09:55.146Z,87
2017-07-28T07:11:02.829Z,86
2017-07-28T07:12:10.565Z,87
2017-07-28T07:13:19.735Z,86
2017-07-28T07:14:27.686Z,87
2017-07-28T07:15:37.558Z,86
2017-07-28T07:16:46.019Z,86
2017-07-28T07:17:54.059Z,87
2017-07-28T07:19:02.200Z,87
2017-07-28T07:20:09.955Z,87
2017-07-28T07:21:17.977Z,86
2017-07-28T07:22:26.145Z,86
2017-07-28T07:23:34.512Z,87
2017-07-28T07:24:43.324Z,86
2017-07-28T07:25:51.847Z,86
2017-07-28T07:26:59.584Z,86
2017-07-28T07:28:07.732Z,86
2017-07-28T07:29:17.227Z,86
2017-07-28T07:30:25.611Z,87
2017-07-28T07:31:35.662Z,87
2017-07-28T07:32:46.890Z,86
2017-07-28T07:33:55.429Z,86
2017-07-28T07:35:04.733Z,86
2017-07-28T07:36:14.830Z,86
2017-07-28T07:37:24.029Z,86
2017-07-28T07:38:36.294Z,86
2017-07-28T07:39:44.641Z,85
2017-07-28T07:40:52.610Z,86
2017-07-28T07:42:03.296Z,86
2017-07-28T07:43:11.402Z,86
2017-07-28T07:44:19.702Z,86
2017-07-28T07:45:29.477Z,86
2017-07-28T07:46:37.218Z,86
2017-07-28T07:47:45.731Z,86
2017-07-28T07:48:53.474Z,86
2017-07-28T07:50:02.233Z,86
2017-07-28T07:51:12.318Z,86
2017-07-28T07:52:21.181Z,86
2017-07-28T07:53:29.354Z,86
2017-07-28T07:54:37.545Z,86
2017-07-28T07:55:45.431Z,86
2017-07-28T07:56:53.838Z,86
2017-07-28T07:58:05.403Z,85
2017-07-28T07:59:14.012Z,86
2017-07-28T08:00:22.287Z,86
2017-07-28T08:01:31.048Z,86
2017-07-28T08:02:40.333Z,85
2017-07-28T08:03:48.601Z,86
2017-07-28T08:04:56.908Z,86
2017-07-28T08:06:05.308Z,86
2017-07-28T08:07:13.167Z,86
2017-07-28T08:08:26.035Z,86
2017-07-28T08:09:34.588Z,86
2017-07-28T08:10:43.602Z,85
2017-07-28T08:11:51.577Z,86
2017-07-28T08:12:59.415Z,86
2017-07-28T08:14:07.770Z,86
2017-07-28T08:15:15.505Z,86
2017-07-28T08:16:23.926Z,85
2017-07-28T08:17:32.025Z,86
2017-07-28T08:18:40.164Z,86
2017-07-28T08:19:47.844Z,86
2017-07-28T08:20:55.857Z,85
2017-07-28T08:22:04.380Z,86
2017-07-28T08:23:12.523Z,85
2017-07-28T08:24:21.264Z,85
2017-07-28T08:25:29.221Z,86
2017-07-28T08:26:36.966Z,86
2017-07-28T08:27:45.127Z,86
2017-07-28T08:28:54.623Z,86
2017-07-28T08:30:03.586Z,86
2017-07-28T08:31:11.878Z,85
2017-07-28T08:32:21.212Z,85
2017-07-28T08:33:29.537Z,86
2017-07-28T08:34:37.574Z,85
2017-07-28T08:35:45.340Z,86
2017-07-28T08:36:53.643Z,86
2017-07-28T08:38:01.365Z,86
2017-07-28T08:39:09.437Z,86
2017-07-28T08:40:17.288Z,85
2017-07-28T08:41:26.639Z,86
2017-07-28T08:42:35.133Z,85
2017-07-28T08:43:43.143Z,85
2017-07-28T08:44:51.818Z,85
2017-07-28T08:45:59.944Z,86
2017-07-28T08:47:08.031Z,86
2017-07-28T08:48:17.048Z,85
2017-07-28T08:49:24.990Z,86
2017-07-28T08:50:33.534Z,85
2017-07-28T08:51:41.412Z,85
2017-07-28T08:52:49.170Z,86
2017-07-28T08:53:57.194Z,85
2017-07-28T08:55:04.961Z,85
2017-07-28T08:56:13.291Z,85
2017-07-28T08:57:21.376Z,85
2017-07-28T08:58:29.401Z,85
2017-07-28T08:59:37.268Z,85
2017-07-28T09:00:45.250Z,85
2017-07-28T09:01:53.384Z,85
2017-07-28T09:03:01.102Z,85
2017-07-28T09:04:08.889Z,85
2017-07-28T09:05:16.967Z,85
2017-07-28T09:06:28.703Z,85
2017-07-28T09:07:37.244Z,85
2017-07-28T09:08:46.036Z,85
2017-07-28T09:09:54.509Z,85
2017-07-28T09:11:02.982Z,85
2017-07-28T09:12:11.350Z,85
2017-07-28T09:13:19.508Z,85
2017-07-28T09:14:27.277Z,85
2017-07-28T09:15:35.062Z,85
2017-07-28T09:16:43.143Z,85
2017-07-28T09:17:51.546Z,85
2017-07-28T09:19:00.131Z,85
2017-07-28T09:20:07.981Z,85
2017-07-28T09:21:15.688Z,85
2017-07-28T09:22:25.871Z,85
2017-07-28T09:23:34.545Z,85
2017-07-28T09:24:42.727Z,85
2017-07-28T09:25:51.689Z,85
2017-07-28T09:26:59.822Z,85
2017-07-28T09:28:07.573Z,85
2017-07-28T09:29:16.920Z,85
2017-07-28T09:30:25.170Z,85
2017-07-28T09:31:33.063Z,85
2017-07-28T09:32:43.645Z,84
2017-07-28T09:33:52.439Z,85
2017-07-28T09:35:00.548Z,85
2017-07-28T09:36:09.324Z,85
2017-07-28T09:37:17.126Z,85
2017-07-28T09:38:25.167Z,85
2017-07-28T09:39:33.572Z,85
2017-07-28T09:40:41.456Z,85
2017-07-28T09:41:49.827Z,85
2017-07-28T09:42:57.622Z,85
2017-07-28T09:44:06.915Z,85
2017-07-28T09:45:17.084Z,85
2017-07-28T09:46:24.945Z,85
2017-07-28T09:47:33.322Z,85
2017-07-28T09:48:41.390Z,85
2017-07-28T09:49:49.150Z,85
2017-07-28T09:50:57.246Z,85
2017-07-28T09:52:05.416Z,85
2017-07-28T09:53:13.674Z,85
2017-07-28T09:54:21.772Z,85
2017-07-28T09:55:29.499Z,85
2017-07-28T09:56:37.842Z,85
2017-07-28T09:57:46.172Z,84
2017-07-28T09:58:54.366Z,85
2017-07-28T10:00:02.085Z,85
2017-07-28T10:01:10.378Z,85
2017-07-28T10:02:19.593Z,85
2017-07-28T10:03:27.287Z,85
2017-07-28T10:04:37.920Z,85
2017-07-28T10:05:46.031Z,85
2017-07-28T10:06:53.766Z,85
2017-07-28T10:08:01.830Z,85
2017-07-28T10:09:09.836Z,85
2017-07-28T10:10:18.284Z,85
2017-07-28T10:11:26.854Z,85
2017-07-28T10:12:34.921Z,85
2017-07-28T10:13:42.968Z,85
2017-07-28T10:14:50.795Z,85
2017-07-28T10:15:59.626Z,85
2017-07-28T10:17:07.359Z,85
2017-07-28T10:18:15.753Z,85
2017-07-28T10:19:23.469Z,85
2017-07-28T10:20:31.513Z,85
2017-07-28T10:21:39.882Z,85
2017-07-28T10:22:49.719Z,85
2017-07-28T10:23:58.684Z,85
2017-07-28T10:25:09.371Z,85
2017-07-28T10:26:17.161Z,84
2017-07-28T10:27:26.486Z,85
2017-07-28T10:28:34.481Z,85
2017-07-28T10:29:42.612Z,85
2017-07-28T10:30:50.422Z,85
2017-07-28T10:31:58.570Z,85
2017-07-28T10:33:07.153Z,85
2017-07-28T10:34:15.268Z,85
2017-07-28T10:35:23.284Z,85
2017-07-28T10:36:31.060Z,85
2017-07-28T10:37:39.183Z,85
2017-07-28T10:38:48.049Z,85
2017-07-28T10:39:56.845Z,85
2017-07-28T10:41:05.152Z,85
2017-07-28T10:42:13.421Z,84
2017-07-28T10:43:21.197Z,85
2017-07-28T10:44:30.919Z,85
2017-07-28T10:45:39.788Z,85
2017-07-28T10:46:50.266Z,85
2017-07-28T10:47:58.899Z,84
2017-07-28T10:49:06.647Z,85
2017-07-28T10:50:14.768Z,85
2017-07-28T10:51:23.146Z,84
2017-07-28T10:52:32.001Z,84
2017-07-28T10:53:40.145Z,84
2017-07-28T10:54:54.816Z,84
2017-07-28T10:56:03.467Z,85
2017-07-28T10:57:11.264Z,85
2017-07-28T10:58:19.150Z,85
2017-07-28T10:59:27.664Z,85
2017-07-28T11:00:37.221Z,85
2017-07-28T11:01:45.696Z,85
2017-07-28T11:02:53.727Z,85
2017-07-28T11:04:01.992Z,85
2017-07-28T11:05:10.526Z,85
2017-07-28T11:06:18.356Z,85
2017-07-28T11:07:26.919Z,85
2017-07-28T11:08:34.796Z,85
2017-07-28T11:09:43.089Z,85
2017-07-28T11:10:50.909Z,85
2017-07-28T11:11:59.313Z,85
2017-07-28T11:13:07.537Z,85
2017-07-28T11:14:16.069Z,84
2017-07-28T11:15:24.488Z,85
2017-07-28T11:16:32.448Z,84
2017-07-28T11:17:40.443Z,85
2017-07-28T11:18:48.501Z,85
2017-07-28T11:19:58.036Z,85
2017-07-28T11:21:05.838Z,85
2017-07-28T11:22:13.817Z,85
2017-07-28T11:23:21.984Z,84
2017-07-28T11:24:30.495Z,84
2017-07-28T11:25:38.659Z,85
2017-07-28T11:26:48.472Z,84
2017-07-28T11:27:56.003Z,84
2017-07-28T11:29:03.913Z,85
2017-07-28T11:30:12.041Z,84
2017-07-28T11:31:20.265Z,84
2017-07-28T11:32:30.435Z,84
2017-07-28T11:33:38.558Z,85
2017-07-28T11:34:47.133Z,85
2017-07-28T11:35:56.027Z,84
2017-07-28T11:37:03.845Z,85
2017-07-28T11:38:11.923Z,84
2017-07-28T11:39:19.926Z,84
2017-07-28T11:40:28.457Z,84
2017-07-28T11:41:50.026Z,85
2017-07-28T11:42:17.182Z,85
2017-07-28T11:43:36.428Z,83
2017-07-28T11:59:26.602Z,92
2017-07-28T12:00:45.225Z,92
2017-07-28T12:02:05.106Z,92
2017-07-28T12:08:19.230Z,94
2017-07-28T12:09:39.126Z,94
2017-07-28T12:17:11.032Z,86
2017-07-28T12:18:30.249Z,86
2017-07-28T12:19:52.058Z,87
2017-07-28T12:21:24.102Z,87
2017-07-28T12:23:16.528Z,86
2017-07-28T12:24:49.746Z,85
2017-07-28T12:27:29.857Z,87
2017-07-28T12:28:59.265Z,87
2017-07-28T12:30:27.798Z,87
2017-07-28T12:55:21.223Z,86
2017-07-28T12:56:46.518Z,86
2017-07-28T12:58:10.612Z,86
2017-07-28T13:30:52.461Z,93
2017-07-28T13:32:13.026Z,94
2017-07-28T13:33:35.453Z,93
2017-07-28T13:35:00.086Z,94
2017-07-28T13:36:27.005Z,94
2017-07-28T13:37:48.795Z,94
2017-07-28T13:39:16.696Z,94
2017-07-28T13:40:39.996Z,95
2017-07-28T13:42:00.785Z,95
2017-07-28T13:43:27.299Z,95
2017-07-28T13:44:51.337Z,96
2017-07-28T13:46:13.890Z,95
2017-07-28T13:47:36.783Z,96
2017-07-28T13:49:00.306Z,96
2017-07-28T13:50:20.928Z,97
2017-07-28T13:51:41.029Z,97
2017-07-28T13:53:02.111Z,97
2017-07-28T13:54:24.399Z,97
2017-07-28T13:55:46.212Z,97
2017-07-28T13:57:06.401Z,98
2017-07-28T13:58:32.636Z,97
2017-07-28T13:59:53.478Z,98
2017-07-28T14:01:21.381Z,98
2017-07-28T14:02:41.741Z,99
2017-07-28T14:04:06.398Z,99
2017-07-28T14:05:30.644Z,99
2017-07-28T14:06:51.407Z,99
2017-07-28T14:08:19.830Z,99
2017-07-28T14:09:42.404Z,100
2017-07-28T14:11:06.479Z,99
2017-07-28T14:12:27.763Z,100
2017-07-28T14:13:51.231Z,100
2017-07-28T14:15:14.228Z,100
2017-07-28T14:16:35.438Z,100
2017-07-28T14:18:00.377Z,100
2017-07-28T14:19:22.548Z,100
2017-07-28T14:20:42.921Z,100
2017-07-28T14:22:03.186Z,100
2017-07-28T14:23:24.019Z,100
2017-07-28T14:24:45.863Z,100
2017-07-28T14:26:13.382Z,100
2017-07-28T14:27:35.912Z,100
2017-07-28T14:28:57.739Z,100
2017-07-28T14:30:18.208Z,100
2017-07-28T14:31:41.855Z,100
2017-07-28T14:33:04.700Z,100
2017-07-28T14:34:31.695Z,100
2017-07-28T14:35:51.908Z,100
2017-07-28T14:37:12.621Z,100
2017-07-28T14:38:33.233Z,100
2017-07-28T14:39:53.992Z,100
2017-07-28T14:41:13.830Z,100
2017-07-28T14:42:34.350Z,100
2017-07-28T14:43:54.786Z,100
2017-07-28T14:45:15.777Z,100
2017-07-28T14:46:41.438Z,100
2017-07-28T14:48:11.749Z,100
2017-07-28T14:49:41.721Z,100
2017-07-28T14:51:06.424Z,100
2017-07-28T14:52:30.246Z,100
2017-07-28T14:53:50.816Z,100
2017-07-28T14:55:20.544Z,100
